ePrivacy and GPDR Cookie Consent by Cookie Consent
EmailTwitter


Surface observations / United Kingdom / EGLL (03772)

Regions: Quebec | Canada | USA | Europe | France | UK | Elsewhere
Station
Display
Info & Location for EGLL (03772) | Help decoding METAR

Weather Conditions observed on 2022/10/03 at 22:50 UTC at LONDON/HEATHROW, UK (EGLL)

Sky conditions: overcast.

Temperature: 13.0 Celsius.

Dewpoint: 12.0 Celsius.

Relative Humidity: 94%

Winds: South-southeast at 7 km/h or 4 knots.

Mean Sea level Pressure: 102.10 kilopascals.

Horizontal visibility: 6.21 statute miles or 9.94 kilometers.

Height of the Ceiling: 1067 metres ( 3500 feet ).

Coded METAR:

EGLL 032250Z AUTO 16004KT 9999 OVC035 13/12 Q1021 NOSIG=